createdAt,value
2023-05-14T00:00:27.093Z,66.82
2023-05-14T00:02:54.614Z,67.19
2023-05-14T00:05:21.605Z,67.50
2023-05-14T00:07:48.543Z,67.90
2023-05-14T00:10:15.374Z,68.32
2023-05-14T00:12:42.462Z,68.48
2023-05-14T00:15:09.981Z,68.99
2023-05-14T00:17:37.923Z,68.73
2023-05-14T00:20:07.465Z,68.89
2023-05-14T00:22:35.251Z,69.04
2023-05-14T00:25:02.790Z,68.71
2023-05-14T00:27:30.448Z,69.41
2023-05-14T00:29:57.716Z,69.45
2023-05-14T00:32:25.465Z,69.64
2023-05-14T00:34:52.397Z,69.19
2023-05-14T00:37:19.870Z,69.38
2023-05-14T00:39:47.089Z,70.15
2023-05-14T00:42:14.158Z,69.80
2023-05-14T00:44:41.194Z,69.55
2023-05-14T00:47:08.977Z,69.72
2023-05-14T00:49:36.638Z,69.84
2023-05-14T00:52:04.261Z,70.39
2023-05-14T00:54:31.516Z,70.86
2023-05-14T00:56:59.860Z,71.21
2023-05-14T00:59:26.836Z,71.33
2023-05-14T01:01:53.873Z,71.15
2023-05-14T01:04:21.225Z,71.15
2023-05-14T01:07:07.758Z,71.43
2023-05-14T01:09:44.807Z,71.80
2023-05-14T01:12:19.632Z,71.48
2023-05-14T01:14:57.261Z,72.11
2023-05-14T01:17:28.920Z,71.99
2023-05-14T01:19:57.093Z,72.22
2023-05-14T01:22:24.248Z,72.31
2023-05-14T01:24:51.248Z,72.79
2023-05-14T01:27:46.457Z,72.91
2023-05-14T01:30:19.728Z,73.40
2023-05-14T01:32:53.876Z,72.75
2023-05-14T01:35:25.694Z,72.66
2023-05-14T01:37:55.932Z,72.83
2023-05-14T01:40:24.408Z,73.24
2023-05-14T01:42:53.264Z,73.35
2023-05-14T01:45:24.729Z,73.60
2023-05-14T01:47:52.178Z,73.80
2023-05-14T01:50:19.346Z,73.65
2023-05-14T01:52:47.228Z,73.88
2023-05-14T01:55:14.689Z,74.12
2023-05-14T01:57:41.808Z,74.02
2023-05-14T02:00:09.673Z,74.45
2023-05-14T02:02:36.691Z,74.46
2023-05-14T02:05:05.560Z,74.59
2023-05-14T02:07:33.887Z,74.58
2023-05-14T02:10:00.972Z,74.88
2023-05-14T02:12:27.867Z,75.19
2023-05-14T02:14:54.849Z,75.18
2023-05-14T02:17:21.869Z,75.40
2023-05-14T02:19:48.802Z,75.67
2023-05-14T02:22:15.777Z,75.55
2023-05-14T02:24:43.334Z,75.79
2023-05-14T02:27:10.251Z,75.63
2023-05-14T02:29:37.090Z,75.28
2023-05-14T02:32:04.408Z,75.79
2023-05-14T02:34:31.390Z,76.74
2023-05-14T02:36:58.249Z,76.61
2023-05-14T02:39:25.254Z,76.43
2023-05-14T02:41:52.132Z,76.36
2023-05-14T02:44:19.064Z,76.81
2023-05-14T02:46:46.464Z,77.25
2023-05-14T02:49:13.707Z,77.00
2023-05-14T02:51:40.604Z,77.35
2023-05-14T02:54:07.682Z,77.32
2023-05-14T02:56:34.690Z,77.72
2023-05-14T02:59:01.529Z,77.78
2023-05-14T03:01:29.124Z,77.79
2023-05-14T03:03:56.591Z,77.22
2023-05-14T03:06:23.614Z,76.89
2023-05-14T03:08:50.852Z,77.14
2023-05-14T03:11:17.884Z,77.66
2023-05-14T03:13:44.733Z,77.64
2023-05-14T03:16:11.708Z,78.17
2023-05-14T03:18:38.569Z,78.72
2023-05-14T03:21:06.295Z,78.61
2023-05-14T03:23:35.381Z,78.54
2023-05-14T03:26:02.656Z,79.98
2023-05-14T03:28:29.576Z,80.56
2023-05-14T03:30:56.746Z,80.38
2023-05-14T03:33:24.170Z,79.85
2023-05-14T03:35:52.128Z,79.64
2023-05-14T03:38:18.981Z,79.64
2023-05-14T03:40:46.455Z,79.49
2023-05-14T03:43:13.384Z,80.06
2023-05-14T03:45:40.415Z,81.05
2023-05-14T03:48:07.694Z,81.83
2023-05-14T03:50:34.737Z,81.42
2023-05-14T03:53:01.748Z,80.82
2023-05-14T03:55:28.626Z,80.66
2023-05-14T03:57:55.558Z,80.89
2023-05-14T04:00:22.896Z,80.59
2023-05-14T04:02:50.112Z,81.24
2023-05-14T04:05:17.613Z,81.07
2023-05-14T04:07:46.182Z,80.92
2023-05-14T04:10:14.568Z,80.70
2023-05-14T04:12:41.392Z,80.52
2023-05-14T04:15:09.171Z,80.54
2023-05-14T04:17:36.143Z,80.34
2023-05-14T04:20:03.487Z,80.71
2023-05-14T04:22:30.400Z,80.34
2023-05-14T04:24:57.253Z,79.71
2023-05-14T04:27:24.177Z,79.04
2023-05-14T04:29:51.431Z,79.13
2023-05-14T04:32:18.671Z,78.78
2023-05-14T04:34:47.278Z,78.44
2023-05-14T04:37:14.267Z,77.92
2023-05-14T04:39:41.132Z,77.59
2023-05-14T04:42:08.585Z,77.59
2023-05-14T04:44:36.916Z,77.42
2023-05-14T04:47:04.846Z,77.56
2023-05-14T04:49:32.200Z,77.56
2023-05-14T04:51:59.558Z,77.80
2023-05-14T04:54:26.799Z,77.42
2023-05-14T04:56:55.464Z,77.33
2023-05-14T04:59:22.815Z,76.99
2023-05-14T05:01:49.675Z,76.80
2023-05-14T05:04:16.637Z,76.69
2023-05-14T05:06:43.765Z,76.41
2023-05-14T05:09:10.802Z,75.91
2023-05-14T05:11:39.291Z,75.73
2023-05-14T05:14:06.126Z,75.53
2023-05-14T05:16:33.321Z,75.34
2023-05-14T05:19:00.257Z,75.18
2023-05-14T05:21:27.261Z,74.94
2023-05-14T05:23:54.229Z,74.17
2023-05-14T05:26:22.585Z,74.04
2023-05-14T05:28:49.430Z,73.30
2023-05-14T05:31:19.056Z,72.81
2023-05-14T05:33:46.999Z,73.29
2023-05-14T05:36:13.864Z,73.29
2023-05-14T05:38:40.776Z,72.69
2023-05-14T05:41:08.254Z,71.95
2023-05-14T05:43:35.373Z,70.66
2023-05-14T05:46:02.503Z,69.59
2023-05-14T05:48:29.463Z,69.13
2023-05-14T05:50:56.300Z,68.53
2023-05-14T05:53:23.351Z,68.50
2023-05-14T05:55:51.849Z,68.66
2023-05-14T05:58:20.035Z,68.90
2023-05-14T06:00:47.691Z,68.44
2023-05-14T06:03:15.280Z,68.48
2023-05-14T06:05:42.225Z,68.04
2023-05-14T06:08:10.122Z,67.91
2023-05-14T06:10:37.895Z,67.46
2023-05-14T06:13:04.924Z,67.01
2023-05-14T06:15:31.875Z,66.56
2023-05-14T06:17:58.891Z,66.53
2023-05-14T06:20:26.143Z,66.16
2023-05-14T06:22:53.216Z,66.64
2023-05-14T06:25:20.073Z,66.34
2023-05-14T06:27:47.018Z,65.46
2023-05-14T06:30:14.579Z,65.71
2023-05-14T06:32:41.570Z,64.65
2023-05-14T06:35:09.178Z,64.93
2023-05-14T06:37:36.105Z,64.79
2023-05-14T06:40:03.970Z,65.15
2023-05-14T06:42:30.817Z,64.57
2023-05-14T06:44:57.654Z,64.12
2023-05-14T06:47:25.014Z,64.17
2023-05-14T06:49:51.969Z,63.77
2023-05-14T06:52:18.884Z,63.78
2023-05-14T06:55:00.436Z,64.26
2023-05-14T06:57:34.219Z,63.00
2023-05-14T07:00:03.299Z,62.43
2023-05-14T07:02:31.160Z,62.99
2023-05-14T07:04:58.096Z,62.62
2023-05-14T07:07:25.119Z,61.77
2023-05-14T07:09:52.070Z,61.80
2023-05-14T07:12:18.914Z,60.84
2023-05-14T07:14:46.051Z,59.59
2023-05-14T07:17:12.946Z,59.91
2023-05-14T07:19:40.049Z,59.87
2023-05-14T07:22:06.886Z,60.36
2023-05-14T07:24:33.862Z,58.50
2023-05-14T07:27:02.097Z,57.71
2023-05-14T07:29:30.696Z,56.62
2023-05-14T07:31:57.820Z,56.23
2023-05-14T07:34:24.691Z,56.09
2023-05-14T07:36:51.599Z,55.52
2023-05-14T07:39:18.441Z,55.42
2023-05-14T07:41:45.296Z,54.08
2023-05-14T07:44:12.329Z,54.14
2023-05-14T07:46:39.064Z,53.02
2023-05-14T07:49:05.903Z,52.13
2023-05-14T07:51:33.687Z,51.83
2023-05-14T07:54:01.294Z,51.53
2023-05-14T07:56:32.813Z,50.96
2023-05-14T07:59:00.108Z,50.51
2023-05-14T08:01:27.492Z,50.53
2023-05-14T08:03:54.666Z,49.07
2023-05-14T08:06:23.292Z,48.40
2023-05-14T08:08:50.166Z,48.24
2023-05-14T08:11:17.151Z,48.51
2023-05-14T08:13:44.138Z,47.57
2023-05-14T08:16:10.984Z,48.11
2023-05-14T08:18:38.272Z,47.33
2023-05-14T08:21:05.852Z,44.71
2023-05-14T08:23:32.838Z,44.39
2023-05-14T08:26:00.332Z,44.25
2023-05-14T08:28:27.373Z,43.57
2023-05-14T08:30:54.745Z,43.94
2023-05-14T08:33:22.110Z,42.85
2023-05-14T08:35:54.101Z,42.56
2023-05-14T08:38:21.295Z,43.04
2023-05-14T08:41:01.119Z,42.65
2023-05-14T08:43:36.095Z,42.95
2023-05-14T08:46:06.668Z,42.45
2023-05-14T08:48:34.850Z,41.20
2023-05-14T08:51:02.806Z,41.02
2023-05-14T08:53:31.769Z,41.60
2023-05-14T08:56:01.148Z,41.09
2023-05-14T08:58:29.100Z,40.64
2023-05-14T09:00:57.054Z,38.61
2023-05-14T09:03:24.686Z,39.20
2023-05-14T09:05:52.741Z,38.75
2023-05-14T09:08:20.202Z,38.13
2023-05-14T09:10:47.210Z,38.15
2023-05-14T09:13:14.969Z,38.02
2023-05-14T09:15:42.158Z,37.54
2023-05-14T09:18:10.439Z,36.74
2023-05-14T09:20:39.732Z,36.19
2023-05-14T09:23:06.569Z,35.79
2023-05-14T09:25:33.926Z,36.59
2023-05-14T09:28:07.457Z,35.73
2023-05-14T09:30:35.327Z,36.75
2023-05-14T09:33:04.457Z,36.79
2023-05-14T09:35:32.847Z,35.70
2023-05-14T09:37:59.939Z,36.24
2023-05-14T09:40:27.961Z,36.21
2023-05-14T09:42:55.781Z,36.96
2023-05-14T09:45:22.682Z,37.39
2023-05-14T09:47:50.185Z,37.57
2023-05-14T09:50:17.495Z,37.54
2023-05-14T09:52:44.490Z,37.46
2023-05-14T09:55:11.610Z,37.72
2023-05-14T09:57:38.719Z,38.39
2023-05-14T10:00:07.101Z,38.40
2023-05-14T10:02:38.685Z,38.21
2023-05-14T10:05:07.557Z,38.12
2023-05-14T10:07:41.953Z,38.13
2023-05-14T10:10:13.813Z,38.93
2023-05-14T10:12:41.539Z,39.07
2023-05-14T10:15:18.322Z,38.84
2023-05-14T10:17:50.566Z,39.15
2023-05-14T10:20:18.797Z,39.28
2023-05-14T10:22:46.491Z,38.75
2023-05-14T10:25:14.308Z,38.86
2023-05-14T10:27:42.656Z,38.26
2023-05-14T10:30:13.268Z,38.22
2023-05-14T10:32:42.193Z,38.38
2023-05-14T10:35:21.058Z,38.34
2023-05-14T10:37:51.560Z,38.69
2023-05-14T10:40:19.664Z,38.83
2023-05-14T10:42:47.179Z,39.77
2023-05-14T10:45:15.955Z,40.16
2023-05-14T10:47:46.157Z,40.41
2023-05-14T10:50:15.582Z,40.57
2023-05-14T10:52:46.524Z,40.37
2023-05-14T10:55:15.520Z,39.22
2023-05-14T10:57:44.488Z,38.64
2023-05-14T11:00:13.048Z,39.61
2023-05-14T11:02:42.236Z,40.15
2023-05-14T11:05:19.674Z,39.82
2023-05-14T11:07:49.024Z,39.73
2023-05-14T11:10:18.950Z,39.19
2023-05-14T11:12:51.239Z,39.77
2023-05-14T11:15:23.723Z,39.97
2023-05-14T11:17:51.994Z,39.79
2023-05-14T11:20:20.334Z,39.28
2023-05-14T11:22:48.921Z,39.37
2023-05-14T11:25:16.612Z,38.98
2023-05-14T11:27:45.615Z,38.12
2023-05-14T11:30:20.280Z,38.04
2023-05-14T11:32:49.692Z,37.78
2023-05-14T11:35:17.933Z,37.56
2023-05-14T11:37:52.565Z,37.48
2023-05-14T11:40:20.420Z,37.69
2023-05-14T11:42:47.644Z,37.93
2023-05-14T11:45:24.585Z,38.57
2023-05-14T11:47:54.130Z,38.44
2023-05-14T11:50:22.646Z,38.95
2023-05-14T11:52:51.193Z,38.78
2023-05-14T11:55:18.825Z,38.90
2023-05-14T11:57:46.257Z,38.46
2023-05-14T12:00:17.303Z,38.69
2023-05-14T12:02:44.424Z,38.55
2023-05-14T12:05:13.608Z,38.98
2023-05-14T12:07:42.108Z,39.21
2023-05-14T12:10:12.094Z,38.39
2023-05-14T12:12:39.137Z,38.51
2023-05-14T12:15:13.776Z,37.39
2023-05-14T12:17:41.587Z,36.95
2023-05-14T12:20:13.227Z,37.98
2023-05-14T12:22:42.808Z,37.62
2023-05-14T12:25:14.581Z,37.53
2023-05-14T12:27:44.985Z,37.70
2023-05-14T12:32:47.883Z,37.76
2023-05-14T12:35:14.877Z,37.97
2023-05-14T12:37:43.030Z,37.93
2023-05-14T12:40:10.429Z,37.95
2023-05-14T12:42:38.031Z,38.27
2023-05-14T12:45:08.215Z,37.79
2023-05-14T12:47:36.644Z,37.76
2023-05-14T12:50:04.340Z,37.92
2023-05-14T12:55:02.008Z,38.04
2023-05-14T12:57:30.441Z,37.57
2023-05-14T12:59:58.140Z,37.52
2023-05-14T13:02:25.071Z,37.67
2023-05-14T13:04:52.053Z,37.72
2023-05-14T13:07:18.953Z,37.72
2023-05-14T13:09:45.899Z,37.63
2023-05-14T13:12:13.075Z,37.45
2023-05-14T13:14:40.007Z,37.68
2023-05-14T13:17:08.387Z,38.18
2023-05-14T13:19:35.652Z,38.43
2023-05-14T13:22:02.613Z,38.74
2023-05-14T13:24:29.527Z,38.66
2023-05-14T13:26:56.805Z,38.92
2023-05-14T13:29:24.759Z,39.12
2023-05-14T13:31:52.066Z,38.93
2023-05-14T13:34:19.285Z,38.47
2023-05-14T13:36:47.594Z,39.25
2023-05-14T13:39:14.811Z,38.97
2023-05-14T13:41:42.295Z,39.01
2023-05-14T13:44:09.492Z,39.51
2023-05-14T13:46:36.471Z,39.26
2023-05-14T13:49:03.442Z,39.50
2023-05-14T13:51:31.607Z,39.25
2023-05-14T13:53:59.137Z,39.44
2023-05-14T13:56:26.519Z,39.14
2023-05-14T13:59:03.158Z,39.35
2023-05-14T14:01:36.695Z,39.51
2023-05-14T14:04:03.729Z,39.52
2023-05-14T14:06:34.878Z,40.31
2023-05-14T14:09:02.273Z,39.75
2023-05-14T14:11:29.273Z,39.44
2023-05-14T14:13:56.248Z,39.79
2023-05-14T14:16:23.257Z,38.89
2023-05-14T14:18:50.768Z,39.49
2023-05-14T14:21:24.916Z,39.29
2023-05-14T14:23:52.120Z,39.83
2023-05-14T14:26:19.257Z,40.38
2023-05-14T14:28:46.269Z,40.48
2023-05-14T14:31:13.529Z,40.14
2023-05-14T14:33:40.684Z,40.67
2023-05-14T14:36:08.190Z,40.65
2023-05-14T14:38:35.375Z,41.29
2023-05-14T14:41:03.474Z,40.99
2023-05-14T14:43:30.509Z,41.43
2023-05-14T14:45:58.394Z,41.52
2023-05-14T14:48:37.843Z,41.11
2023-05-14T14:51:06.794Z,41.45
2023-05-14T14:53:35.176Z,41.82
2023-05-14T14:56:03.357Z,42.23
2023-05-14T14:58:31.662Z,42.46
2023-05-14T15:00:59.331Z,42.75
2023-05-14T15:03:27.298Z,42.82
2023-05-14T15:05:54.589Z,42.99
2023-05-14T15:08:27.760Z,43.16
2023-05-14T15:10:56.338Z,43.24
2023-05-14T15:13:23.680Z,43.79
2023-05-14T15:15:52.939Z,43.70
2023-05-14T15:18:20.252Z,44.09
2023-05-14T15:20:47.722Z,44.29
2023-05-14T15:23:14.853Z,44.71
2023-05-14T15:25:41.926Z,44.73
2023-05-14T15:28:09.128Z,44.64
2023-05-14T15:30:36.237Z,45.21
2023-05-14T15:33:03.295Z,45.40
2023-05-14T15:35:30.626Z,45.39
2023-05-14T15:37:57.658Z,45.55
2023-05-14T15:40:25.106Z,45.85
2023-05-14T15:42:52.378Z,46.48
2023-05-14T15:45:19.424Z,46.67
2023-05-14T15:47:46.288Z,47.18
2023-05-14T15:50:13.661Z,47.53
2023-05-14T15:52:41.858Z,48.13
2023-05-14T15:55:09.549Z,48.69
2023-05-14T15:57:36.879Z,49.22
2023-05-14T16:00:11.419Z,50.00
2023-05-14T16:02:39.938Z,49.71
2023-05-14T16:05:08.723Z,50.22
2023-05-14T16:07:36.429Z,50.97
2023-05-14T16:10:04.065Z,51.40
2023-05-14T16:12:31.601Z,51.72
2023-05-14T16:14:59.343Z,51.49
2023-05-14T16:17:30.810Z,52.26
2023-05-14T16:19:57.891Z,53.31
2023-05-14T16:22:24.860Z,54.69
2023-05-14T16:24:51.819Z,55.53
2023-05-14T16:27:19.514Z,55.72
2023-05-14T16:29:46.577Z,56.23
2023-05-14T16:32:13.842Z,55.83
2023-05-14T16:34:41.490Z,55.73
2023-05-14T16:37:09.285Z,56.86
2023-05-14T16:39:37.945Z,57.30
2023-05-14T16:42:05.797Z,58.06
2023-05-14T16:44:32.898Z,59.11
2023-05-14T16:46:59.837Z,60.35
2023-05-14T16:49:26.692Z,61.31
2023-05-14T16:51:53.567Z,61.34
2023-05-14T16:54:20.511Z,62.10
2023-05-14T16:56:48.500Z,63.14
2023-05-14T16:59:16.327Z,65.95
2023-05-14T17:01:44.770Z,66.66
2023-05-14T17:04:11.827Z,66.98
2023-05-14T17:06:38.900Z,68.95
2023-05-14T17:09:07.195Z,67.09
2023-05-14T17:11:34.084Z,66.07
2023-05-14T17:14:00.957Z,67.86
2023-05-14T17:16:28.510Z,66.48
2023-05-14T17:18:55.807Z,67.43
2023-05-14T17:21:23.491Z,68.32
2023-05-14T17:23:50.873Z,70.71
2023-05-14T17:26:17.929Z,73.70
2023-05-14T17:28:45.016Z,76.03
2023-05-14T17:31:12.022Z,76.88
2023-05-14T17:33:39.452Z,78.00
2023-05-14T17:36:07.243Z,79.13
2023-05-14T17:38:35.242Z,79.59
2023-05-14T17:41:02.270Z,79.04
2023-05-14T17:43:29.405Z,79.69
2023-05-14T17:45:56.407Z,79.32
2023-05-14T17:48:24.414Z,80.38
2023-05-14T17:50:52.856Z,80.45
2023-05-14T17:53:19.747Z,80.54
2023-05-14T17:55:46.870Z,80.28
2023-05-14T17:58:16.364Z,79.76
2023-05-14T18:00:44.530Z,78.73
2023-05-14T18:03:11.962Z,78.39
2023-05-14T18:05:39.258Z,77.92
2023-05-14T18:08:06.485Z,78.80
2023-05-14T18:10:33.869Z,78.85
2023-05-14T18:13:01.739Z,79.56
2023-05-14T18:15:31.874Z,79.94
2023-05-14T18:17:58.958Z,80.79
2023-05-14T18:20:26.272Z,80.71
2023-05-14T18:22:53.268Z,80.92
2023-05-14T18:25:20.324Z,80.87
2023-05-14T18:27:47.506Z,80.92
2023-05-14T18:30:16.055Z,81.05
2023-05-14T18:32:45.169Z,81.39
2023-05-14T18:35:13.546Z,82.14
2023-05-14T18:37:41.310Z,82.14
2023-05-14T18:40:09.269Z,81.76
2023-05-14T18:42:36.780Z,82.16
2023-05-14T18:45:04.964Z,82.30
2023-05-14T18:47:33.596Z,82.15
2023-05-14T18:50:02.251Z,82.07
2023-05-14T18:52:29.982Z,82.71
2023-05-14T18:54:57.172Z,82.84
2023-05-14T18:57:24.430Z,82.89
2023-05-14T18:59:51.516Z,82.99
2023-05-14T19:02:19.075Z,83.07
2023-05-14T19:07:15.990Z,83.75
2023-05-14T19:09:43.126Z,84.44
2023-05-14T19:12:10.091Z,84.56
2023-05-14T19:14:37.261Z,84.32
2023-05-14T19:17:05.288Z,84.63
2023-05-14T19:19:32.302Z,84.86
2023-05-14T19:21:59.342Z,84.54
2023-05-14T19:24:26.431Z,84.09
2023-05-14T19:26:53.834Z,84.25
2023-05-14T19:29:20.789Z,84.23
2023-05-14T19:31:47.976Z,84.47
2023-05-14T19:34:15.436Z,84.95
2023-05-14T19:36:42.733Z,85.85
2023-05-14T19:39:10.382Z,86.66
2023-05-14T19:41:37.379Z,86.94
2023-05-14T19:44:04.545Z,87.86
2023-05-14T19:46:32.036Z,88.02
2023-05-14T19:48:59.440Z,89.40
2023-05-14T19:51:26.380Z,89.85
2023-05-14T19:53:53.577Z,90.42
2023-05-14T19:56:22.139Z,92.02
2023-05-14T19:58:49.148Z,92.55
2023-05-14T20:01:16.136Z,93.18
2023-05-14T20:03:43.798Z,94.05
2023-05-14T20:06:11.336Z,94.22
2023-05-14T20:08:38.723Z,93.90
2023-05-14T20:11:06.862Z,94.55
2023-05-14T20:13:36.274Z,95.29
2023-05-14T20:16:04.053Z,95.10
2023-05-14T20:18:32.029Z,94.41
2023-05-14T20:20:59.017Z,94.89
2023-05-14T20:23:26.214Z,95.01
2023-05-14T20:25:53.656Z,94.53
2023-05-14T20:28:21.281Z,93.79
2023-05-14T20:30:48.178Z,93.29
2023-05-14T20:33:15.375Z,93.50
2023-05-14T20:35:44.188Z,93.20
2023-05-14T20:38:13.046Z,93.00
2023-05-14T20:40:41.338Z,93.24
2023-05-14T20:43:08.268Z,93.55
2023-05-14T20:45:36.201Z,93.62
2023-05-14T20:48:06.483Z,93.70
2023-05-14T20:50:33.802Z,93.48
2023-05-14T20:53:01.451Z,93.57
2023-05-14T20:55:28.407Z,94.17
2023-05-14T20:57:55.344Z,94.11
2023-05-14T21:00:22.291Z,94.32
2023-05-14T21:02:49.941Z,94.52
2023-05-14T21:05:17.702Z,94.40
2023-05-14T21:07:44.642Z,94.55
2023-05-14T21:10:11.809Z,94.55
2023-05-14T21:12:38.837Z,94.87
2023-05-14T21:15:06.288Z,95.34
2023-05-14T21:17:33.540Z,94.72
2023-05-14T21:20:01.223Z,94.23
2023-05-14T21:22:28.251Z,94.13
2023-05-14T21:24:55.915Z,94.06
2023-05-14T21:27:22.866Z,94.87
2023-05-14T21:29:50.456Z,94.73
2023-05-14T21:32:17.509Z,94.42
2023-05-14T21:34:44.914Z,94.11
2023-05-14T21:37:11.978Z,94.36
2023-05-14T21:39:38.942Z,94.66
2023-05-14T21:42:06.662Z,95.11
2023-05-14T21:44:33.662Z,96.16
2023-05-14T21:47:01.104Z,96.29
2023-05-14T21:49:28.375Z,96.17
2023-05-14T21:51:55.495Z,95.99
2023-05-14T21:54:22.638Z,96.19
2023-05-14T21:56:49.983Z,95.89
2023-05-14T21:59:16.796Z,95.90
2023-05-14T22:04:14.151Z,96.96
2023-05-14T22:06:41.978Z,96.98
2023-05-14T22:09:11.575Z,96.90
2023-05-14T22:11:38.634Z,96.53
2023-05-14T22:14:05.653Z,96.45
2023-05-14T22:16:33.772Z,95.86
2023-05-14T22:19:00.815Z,96.12
2023-05-14T22:21:28.081Z,96.13
2023-05-14T22:23:55.004Z,96.54
2023-05-14T22:26:22.154Z,95.86
2023-05-14T22:28:49.911Z,95.47
2023-05-14T22:31:17.289Z,95.64
2023-05-14T22:33:44.302Z,95.29
2023-05-14T22:36:11.742Z,95.47
2023-05-14T22:38:41.486Z,95.60
2023-05-14T22:41:08.453Z,94.92
2023-05-14T22:43:35.394Z,95.33
2023-05-14T22:46:02.478Z,95.58
2023-05-14T22:48:29.678Z,94.96
2023-05-14T22:50:56.702Z,95.26
2023-05-14T22:53:25.082Z,95.62
2023-05-14T22:55:52.398Z,95.90
2023-05-14T22:58:19.276Z,95.63
2023-05-14T23:00:46.243Z,95.03
2023-05-14T23:03:13.022Z,94.43
2023-05-14T23:05:39.834Z,94.57
2023-05-14T23:08:07.116Z,95.08
2023-05-14T23:10:35.807Z,94.97
2023-05-14T23:13:02.744Z,95.24
2023-05-14T23:15:29.948Z,95.41
2023-05-14T23:17:56.938Z,95.54
2023-05-14T23:20:23.854Z,95.83
2023-05-14T23:22:50.891Z,95.75
2023-05-14T23:25:17.687Z,95.23
2023-05-14T23:27:44.511Z,95.26
2023-05-14T23:30:12.361Z,95.78
2023-05-14T23:32:39.203Z,95.72
2023-05-14T23:35:11.261Z,95.58
2023-05-14T23:37:50.861Z,94.75
2023-05-14T23:40:25.121Z,94.88
2023-05-14T23:42:59.358Z,95.15
2023-05-14T23:45:31.958Z,95.51
2023-05-14T23:48:03.517Z,95.84
2023-05-14T23:50:41.886Z,96.33
2023-05-14T23:55:51.778Z,95.72
2023-05-14T23:58:18.620Z,95.78
